createdAt,value
2023-03-11T00:00:36.878Z,2.10
2023-03-11T00:03:24.884Z,1.92
2023-03-11T00:06:13.311Z,1.50
2023-03-11T00:09:00.539Z,1.67
2023-03-11T00:11:47.743Z,1.77
2023-03-11T00:14:35.252Z,2.30
2023-03-11T00:17:22.458Z,1.63
2023-03-11T00:20:25.120Z,1.70
2023-03-11T00:23:15.911Z,1.70
2023-03-11T00:26:03.406Z,1.52
2023-03-11T00:28:50.779Z,1.60
2023-03-11T00:31:39.273Z,2.25
2023-03-11T00:34:28.777Z,1.92
2023-03-11T00:37:20.541Z,1.60
2023-03-11T00:40:12.882Z,1.73
2023-03-11T00:43:02.170Z,2.15
2023-03-11T00:45:49.475Z,1.73
2023-03-11T00:48:38.930Z,1.90
2023-03-11T00:51:26.416Z,1.70
2023-03-11T00:54:13.990Z,1.80
2023-03-11T00:57:02.606Z,2.17
2023-03-11T00:59:49.832Z,2.50
2023-03-11T01:02:39.554Z,1.92
2023-03-11T01:05:30.331Z,2.20
2023-03-11T01:08:17.903Z,1.88
2023-03-11T01:11:06.781Z,2.22
2023-03-11T01:13:53.916Z,2.17
2023-03-11T01:16:41.850Z,2.40
2023-03-11T01:19:29.863Z,1.98
2023-03-11T01:22:18.920Z,2.15
2023-03-11T01:25:06.357Z,2.65
2023-03-11T01:27:53.965Z,2.55
2023-03-11T01:30:44.604Z,2.30
2023-03-11T01:37:20.350Z,2.58
2023-03-11T01:40:09.339Z,2.13
2023-03-11T01:42:57.474Z,2.58
2023-03-11T01:45:50.809Z,2.33
2023-03-11T01:48:40.477Z,2.58
2023-03-11T01:51:36.034Z,2.90
2023-03-11T01:54:23.321Z,2.50
2023-03-11T01:57:13.920Z,2.33
2023-03-11T02:00:05.428Z,2.35
2023-03-11T02:02:54.348Z,2.25
2023-03-11T02:05:44.699Z,2.13
2023-03-11T02:08:34.335Z,2.35
2023-03-11T02:11:29.398Z,2.22
2023-03-11T02:14:17.291Z,2.17
2023-03-11T02:17:04.556Z,2.20
2023-03-11T02:20:06.591Z,2.03
2023-03-11T02:23:03.210Z,2.47
2023-03-11T02:25:50.373Z,2.30
2023-03-11T02:28:42.769Z,2.00
2023-03-11T02:31:31.491Z,1.80
2023-03-11T02:34:31.947Z,2.15
2023-03-11T02:37:22.508Z,2.55
2023-03-11T02:40:25.114Z,1.80
2023-03-11T02:43:21.860Z,2.28
2023-03-11T02:46:11.713Z,2.08
2023-03-11T02:49:00.588Z,2.00
2023-03-11T02:51:49.343Z,2.00
2023-03-11T02:54:36.899Z,2.00
2023-03-11T02:57:23.981Z,2.10
2023-03-11T03:00:15.199Z,1.90
2023-03-11T03:03:03.775Z,2.03
2023-03-11T03:05:53.018Z,1.92
2023-03-11T03:08:40.734Z,2.20
2023-03-11T03:11:28.087Z,1.73
2023-03-11T03:14:16.513Z,2.15
2023-03-11T03:17:04.267Z,1.90
2023-03-11T03:19:55.127Z,1.60
2023-03-11T03:22:46.810Z,1.70
2023-03-11T03:25:34.229Z,1.57
2023-03-11T03:28:21.702Z,2.65
2023-03-11T03:31:10.497Z,2.17
2023-03-11T03:34:00.238Z,1.88
2023-03-11T03:36:47.532Z,1.90
2023-03-11T03:39:34.866Z,2.13
2023-03-11T03:42:22.834Z,1.92
2023-03-11T03:45:10.690Z,1.98
2023-03-11T03:47:57.942Z,1.80
2023-03-11T03:50:47.563Z,1.88
2023-03-11T03:53:38.247Z,1.92
2023-03-11T03:56:26.040Z,2.20
2023-03-11T03:59:13.339Z,1.77
2023-03-11T04:02:03.046Z,2.30
2023-03-11T04:04:51.764Z,1.90
2023-03-11T04:07:38.904Z,1.85
2023-03-11T04:10:26.008Z,2.10
2023-03-11T04:13:15.631Z,2.25
2023-03-11T04:16:14.574Z,2.22
2023-03-11T04:19:02.297Z,2.40
2023-03-11T04:21:52.007Z,2.10
2023-03-11T04:24:39.215Z,1.98
2023-03-11T04:27:27.023Z,2.45
2023-03-11T04:30:14.422Z,2.42
2023-03-11T04:33:01.626Z,2.70
2023-03-11T04:35:48.796Z,2.25
2023-03-11T04:38:37.770Z,2.33
2023-03-11T04:41:25.003Z,2.42
2023-03-11T04:44:12.298Z,2.58
2023-03-11T04:46:59.467Z,2.70
2023-03-11T04:49:46.904Z,2.42
2023-03-11T04:52:34.104Z,2.50
2023-03-11T04:55:21.237Z,2.53
2023-03-11T04:58:11.051Z,3.03
2023-03-11T05:01:50.679Z,3.13
2023-03-11T05:08:25.899Z,2.60
2023-03-11T05:14:16.855Z,3.13
2023-03-11T05:17:04.197Z,3.30
2023-03-11T05:19:53.780Z,3.10
2023-03-11T05:22:41.085Z,2.92
2023-03-11T05:25:28.710Z,2.78
2023-03-11T05:28:15.956Z,2.83
2023-03-11T05:31:03.722Z,2.90
2023-03-11T05:33:52.988Z,2.88
2023-03-11T05:36:40.189Z,3.08
2023-03-11T05:39:27.857Z,3.08
2023-03-11T05:42:17.246Z,2.90
2023-03-11T05:45:04.943Z,3.10
2023-03-11T05:47:52.908Z,2.75
2023-03-11T05:50:40.040Z,2.15
2023-03-11T05:53:27.251Z,2.55
2023-03-11T05:56:22.649Z,2.38
2023-03-11T05:59:16.812Z,2.38
2023-03-11T06:02:04.347Z,4.93
2023-03-11T06:04:51.686Z,2.53
2023-03-11T06:07:38.995Z,2.10
2023-03-11T06:10:29.131Z,2.47
2023-03-11T06:13:16.801Z,2.65
2023-03-11T06:16:05.083Z,2.72
2023-03-11T06:18:52.397Z,2.70
2023-03-11T06:21:39.934Z,3.30
2023-03-11T06:24:27.349Z,2.60
2023-03-11T06:27:15.097Z,2.58
2023-03-11T06:30:05.010Z,2.85
2023-03-11T06:32:55.279Z,2.40
2023-03-11T06:35:42.730Z,2.13
2023-03-11T06:38:30.980Z,3.40
2023-03-11T06:41:24.021Z,3.20
2023-03-11T06:44:11.524Z,3.47
2023-03-11T06:46:59.241Z,2.60
2023-03-11T06:49:46.591Z,2.40
2023-03-11T06:52:33.823Z,2.30
2023-03-11T06:55:21.362Z,2.60
2023-03-11T06:58:08.606Z,2.30
2023-03-11T07:00:59.929Z,2.30
2023-03-11T07:03:50.965Z,2.15
2023-03-11T07:06:40.275Z,2.03
2023-03-11T07:09:28.573Z,2.50
2023-03-11T07:12:16.058Z,2.05
2023-03-11T07:15:05.290Z,2.10
2023-03-11T07:17:52.889Z,1.90
2023-03-11T07:20:40.555Z,2.72
2023-03-11T07:23:32.361Z,2.08
2023-03-11T07:29:34.431Z,2.25
2023-03-11T07:32:23.776Z,2.00
2023-03-11T07:35:15.335Z,2.33
2023-03-11T07:38:02.545Z,1.80
2023-03-11T07:41:02.241Z,1.88
2023-03-11T07:43:49.392Z,2.45
2023-03-11T07:46:36.602Z,2.20
2023-03-11T07:49:28.643Z,1.75
2023-03-11T07:52:15.876Z,1.92
2023-03-11T07:55:03.158Z,2.22
2023-03-11T07:57:52.183Z,2.28
2023-03-11T08:00:39.468Z,2.50
2023-03-11T08:03:26.884Z,2.15
2023-03-11T08:06:18.751Z,2.00
2023-03-11T08:09:09.034Z,1.88
2023-03-11T08:11:56.208Z,2.05
2023-03-11T08:14:43.961Z,1.80
2023-03-11T08:17:31.092Z,2.60
2023-03-11T08:20:18.418Z,1.60
2023-03-11T08:23:06.283Z,1.80
2023-03-11T08:25:53.458Z,1.52
2023-03-11T08:28:40.965Z,2.10
2023-03-11T08:31:34.814Z,1.50
2023-03-11T08:34:24.376Z,1.27
2023-03-11T08:37:11.655Z,1.40
2023-03-11T08:40:00.078Z,1.38
2023-03-11T08:42:47.563Z,1.48
2023-03-11T08:45:39.402Z,1.55
2023-03-11T08:48:27.012Z,1.33
2023-03-11T08:51:14.457Z,1.30
2023-03-11T08:54:03.926Z,1.42
2023-03-11T08:56:51.091Z,1.27
2023-03-11T08:59:38.334Z,1.65
2023-03-11T09:02:26.449Z,1.25
2023-03-11T09:05:13.934Z,1.10
2023-03-11T09:08:05.734Z,1.40
2023-03-11T09:10:53.276Z,1.90
2023-03-11T09:13:41.965Z,1.33
2023-03-11T09:16:33.741Z,1.48
2023-03-11T09:19:21.014Z,0.90
2023-03-11T09:22:08.377Z,1.27
2023-03-11T09:24:56.849Z,1.23
2023-03-11T09:27:47.211Z,1.88
2023-03-11T09:30:35.805Z,1.00
2023-03-11T09:33:23.516Z,1.20
2023-03-11T09:36:21.505Z,0.90
2023-03-11T09:39:09.172Z,1.10
2023-03-11T09:41:59.395Z,1.33
2023-03-11T09:45:04.663Z,1.00
2023-03-11T09:48:23.478Z,1.20
2023-03-11T09:51:22.966Z,0.82
2023-03-11T09:54:12.099Z,0.65
2023-03-11T09:57:00.668Z,1.00
2023-03-11T09:59:51.294Z,0.98
2023-03-11T10:02:40.069Z,0.80
2023-03-11T10:05:29.741Z,0.90
2023-03-11T10:08:40.800Z,1.33
2023-03-11T10:11:45.451Z,1.00
2023-03-11T10:14:42.890Z,1.02
2023-03-11T10:17:41.813Z,0.95
2023-03-11T10:20:53.168Z,0.90
2023-03-11T10:24:03.277Z,1.13
2023-03-11T10:26:57.051Z,1.10
2023-03-11T10:30:25.257Z,0.80
2023-03-11T10:33:56.620Z,0.73
2023-03-11T10:37:04.460Z,0.90
2023-03-11T10:39:54.599Z,0.80
2023-03-11T10:42:44.196Z,1.33
2023-03-11T10:45:41.587Z,1.13
2023-03-11T10:48:31.334Z,1.15
2023-03-11T10:51:24.131Z,0.90
2023-03-11T10:54:46.415Z,1.15
2023-03-11T10:57:36.234Z,1.00
2023-03-11T11:00:30.529Z,1.38
2023-03-11T11:03:23.594Z,1.15
2023-03-11T11:09:16.925Z,0.90
2023-03-11T11:12:17.668Z,1.38
2023-03-11T11:15:05.788Z,1.08
2023-03-11T11:17:55.643Z,0.98
2023-03-11T11:20:56.236Z,1.23
2023-03-11T11:24:02.997Z,1.05
2023-03-11T11:27:24.730Z,0.88
2023-03-11T11:30:17.646Z,1.20
2023-03-11T11:33:26.073Z,1.10
2023-03-11T11:36:16.429Z,1.58
2023-03-11T11:39:16.606Z,0.82
2023-03-11T11:42:04.400Z,1.25
2023-03-11T11:45:20.699Z,1.15
2023-03-11T11:48:34.146Z,1.00
2023-03-11T11:51:28.275Z,1.35
2023-03-11T11:54:33.970Z,0.90
2023-03-11T11:57:24.348Z,1.00
2023-03-11T12:00:42.335Z,1.10
2023-03-11T12:03:51.074Z,0.80
2023-03-11T12:07:02.209Z,0.90
2023-03-11T12:10:23.358Z,0.80
2023-03-11T12:13:35.090Z,0.95
2023-03-11T12:16:47.988Z,0.90
2023-03-11T12:19:39.809Z,1.05
2023-03-11T12:22:27.030Z,0.85
2023-03-11T12:25:47.177Z,1.10
2023-03-11T12:28:45.572Z,1.17
2023-03-11T12:31:39.020Z,1.00
2023-03-11T12:34:29.698Z,1.40
2023-03-11T12:37:24.214Z,1.23
2023-03-11T12:40:42.485Z,1.60
2023-03-11T12:43:33.988Z,1.40
2023-03-11T12:46:21.933Z,1.23
2023-03-11T12:49:18.389Z,0.95
2023-03-11T12:52:14.363Z,1.50
2023-03-11T12:55:01.575Z,0.93
2023-03-11T12:57:48.735Z,1.10
2023-03-11T13:01:19.641Z,1.13
2023-03-11T13:04:21.195Z,1.00
2023-03-11T13:07:35.879Z,1.20
2023-03-11T13:10:29.038Z,1.33
2023-03-11T13:13:25.171Z,1.20
2023-03-11T13:16:17.286Z,0.98
2023-03-11T13:19:27.259Z,0.90
2023-03-11T13:23:03.814Z,1.50
2023-03-11T13:25:54.059Z,0.90
2023-03-11T13:29:14.200Z,1.50
2023-03-11T13:32:32.754Z,1.30
2023-03-11T13:35:56.170Z,1.13
2023-03-11T13:39:20.322Z,1.20
2023-03-11T13:42:29.458Z,1.20
2023-03-11T13:45:35.308Z,1.20
2023-03-11T13:48:49.458Z,1.45
2023-03-11T13:51:43.675Z,1.30
2023-03-11T13:54:50.524Z,1.20
2023-03-11T13:57:38.350Z,1.17
2023-03-11T14:00:29.118Z,1.20
2023-03-11T14:03:22.879Z,1.20
2023-03-11T14:06:18.023Z,1.50
2023-03-11T14:09:18.488Z,1.23
2023-03-11T14:12:07.894Z,1.40
2023-03-11T14:15:07.286Z,1.52
2023-03-11T14:18:14.831Z,1.10
2023-03-11T14:21:06.574Z,1.55
2023-03-11T14:23:56.777Z,1.20
2023-03-11T14:26:45.011Z,1.40
2023-03-11T14:29:43.402Z,1.02
2023-03-11T14:32:35.904Z,1.17
2023-03-11T14:35:23.368Z,1.40
2023-03-11T14:38:27.334Z,1.30
2023-03-11T14:41:15.840Z,1.30
2023-03-11T14:44:03.689Z,1.20
2023-03-11T14:46:54.786Z,1.35
2023-03-11T14:49:42.838Z,1.27
2023-03-11T14:52:44.380Z,1.27
2023-03-11T14:55:51.017Z,1.50
2023-03-11T14:58:42.301Z,1.30
2023-03-11T15:01:34.442Z,1.55
2023-03-11T15:04:35.669Z,1.50
2023-03-11T15:07:27.948Z,1.80
2023-03-11T15:10:17.757Z,1.30
2023-03-11T15:13:26.508Z,1.40
2023-03-11T15:16:31.773Z,1.40
2023-03-11T15:19:28.190Z,1.55
2023-03-11T15:22:26.261Z,1.55
2023-03-11T15:25:19.307Z,14.60
2023-03-11T15:28:29.883Z,3.60
2023-03-11T15:31:20.197Z,2.05
2023-03-11T15:34:19.418Z,1.65
2023-03-11T15:37:26.524Z,1.77
2023-03-11T15:40:19.867Z,1.60
2023-03-11T15:43:18.307Z,2.50
2023-03-11T15:46:07.663Z,2.10
2023-03-11T15:48:55.148Z,2.00
2023-03-11T15:51:42.428Z,1.80
2023-03-11T15:54:29.921Z,1.55
2023-03-11T15:57:38.615Z,1.77
2023-03-11T16:00:26.962Z,2.05
2023-03-11T16:03:14.457Z,1.80
2023-03-11T16:06:01.982Z,2.33
2023-03-11T16:08:49.833Z,2.13
2023-03-11T16:11:37.616Z,2.13
2023-03-11T16:14:26.187Z,1.75
2023-03-11T16:17:18.768Z,1.90
2023-03-11T16:20:06.474Z,2.22
2023-03-11T16:22:56.375Z,2.47
2023-03-11T16:25:44.577Z,2.10
2023-03-11T16:28:31.896Z,2.00
2023-03-11T16:31:19.168Z,1.90
2023-03-11T16:34:07.684Z,1.88
2023-03-11T16:36:55.048Z,1.73
2023-03-11T16:39:42.457Z,2.20
2023-03-11T16:42:29.640Z,2.20
2023-03-11T16:45:18.180Z,1.88
2023-03-11T16:48:06.022Z,2.17
2023-03-11T16:50:53.175Z,2.00
2023-03-11T16:53:42.890Z,2.33
2023-03-11T16:56:30.221Z,1.83
2023-03-11T16:59:17.473Z,1.95
2023-03-11T17:02:04.992Z,1.75
2023-03-11T17:04:55.186Z,1.92
2023-03-11T17:07:42.785Z,2.20
2023-03-11T17:10:38.502Z,2.17
2023-03-11T17:13:28.470Z,1.85
2023-03-11T17:16:15.923Z,2.35
2023-03-11T17:19:05.654Z,2.15
2023-03-11T17:21:53.117Z,1.75
2023-03-11T17:24:40.749Z,2.67
2023-03-11T17:27:32.455Z,2.70
2023-03-11T17:30:35.669Z,1.70
2023-03-11T17:33:23.839Z,2.17
2023-03-11T17:36:16.035Z,2.60
2023-03-11T17:39:03.486Z,2.40
2023-03-11T17:41:52.094Z,2.00
2023-03-11T17:44:50.890Z,2.20
2023-03-11T17:47:38.949Z,2.17
2023-03-11T17:50:26.562Z,2.30
2023-03-11T17:53:13.794Z,2.10
2023-03-11T17:56:01.015Z,2.10
2023-03-11T17:58:49.054Z,2.63
2023-03-11T18:01:38.811Z,1.98
2023-03-11T18:04:26.012Z,2.42
2023-03-11T18:07:13.542Z,2.75
2023-03-11T18:10:00.741Z,2.42
2023-03-11T18:12:53.825Z,2.50
2023-03-11T18:15:41.094Z,2.13
2023-03-11T18:18:31.164Z,3.13
2023-03-11T18:21:21.487Z,2.80
2023-03-11T18:24:08.816Z,4.50
2023-03-11T18:26:56.831Z,3.17
2023-03-11T18:29:44.083Z,2.90
2023-03-11T18:32:31.498Z,2.60
2023-03-11T18:35:19.006Z,2.50
2023-03-11T18:38:06.538Z,2.63
2023-03-11T18:40:57.924Z,2.85
2023-03-11T18:43:51.401Z,2.75
2023-03-11T18:46:38.930Z,2.50
2023-03-11T18:49:26.527Z,2.67
2023-03-11T18:52:13.738Z,2.67
2023-03-11T18:55:03.549Z,2.35
2023-03-11T18:57:50.953Z,2.60
2023-03-11T19:00:38.316Z,3.13
2023-03-11T19:03:25.776Z,2.85
2023-03-11T19:06:13.724Z,2.50
2023-03-11T19:09:01.850Z,2.83
2023-03-11T19:11:49.176Z,2.95
2023-03-11T19:14:36.452Z,3.35
2023-03-11T19:17:26.106Z,2.60
2023-03-11T19:20:14.275Z,2.83
2023-03-11T19:23:02.913Z,4.43
2023-03-11T19:26:02.538Z,5.97
2023-03-11T19:28:50.506Z,9.57
2023-03-11T19:31:37.972Z,4.38
2023-03-11T19:34:27.186Z,4.63
2023-03-11T19:37:14.906Z,4.65
2023-03-11T19:40:02.435Z,5.07
2023-03-11T19:42:52.973Z,5.25
2023-03-11T19:45:50.766Z,5.10
2023-03-11T19:48:38.201Z,3.80
2023-03-11T19:51:30.451Z,3.20
2023-03-11T19:54:20.715Z,3.28
2023-03-11T19:57:08.686Z,4.07
2023-03-11T19:59:56.422Z,2.60
2023-03-11T20:02:44.045Z,2.88
2023-03-11T20:05:35.390Z,4.25
2023-03-11T20:08:25.513Z,5.55
2023-03-11T20:11:19.123Z,6.90
2023-03-11T20:14:07.112Z,7.43
2023-03-11T20:16:54.517Z,6.65
2023-03-11T20:19:45.046Z,6.18
2023-03-11T20:22:35.203Z,6.32
2023-03-11T20:25:23.113Z,7.13
2023-03-11T20:28:13.883Z,9.93
2023-03-11T20:31:23.722Z,9.50
2023-03-11T20:34:12.155Z,8.35
2023-03-11T20:36:59.573Z,7.97
2023-03-11T20:39:47.296Z,7.10
2023-03-11T20:42:34.599Z,8.30
2023-03-11T20:45:22.403Z,9.75
2023-03-11T20:48:12.335Z,9.95
2023-03-11T20:51:04.625Z,12.63
2023-03-11T20:53:55.310Z,12.95
2023-03-11T20:56:45.244Z,13.15
2023-03-11T20:59:32.796Z,12.10
2023-03-11T21:02:23.284Z,17.88
2023-03-11T21:05:12.608Z,20.98
2023-03-11T21:07:59.849Z,18.13
2023-03-11T21:10:47.327Z,18.23
2023-03-11T21:13:37.116Z,13.20
2023-03-11T21:16:28.226Z,10.70
2023-03-11T21:19:18.926Z,9.80
2023-03-11T21:22:06.997Z,10.80
2023-03-11T21:24:55.272Z,7.85
2023-03-11T21:27:42.632Z,8.80
2023-03-11T21:30:29.822Z,7.28
2023-03-11T21:33:20.277Z,9.02
2023-03-11T21:36:09.639Z,9.55
2023-03-11T21:38:57.216Z,8.70
2023-03-11T21:41:44.455Z,8.35
2023-03-11T21:44:31.836Z,9.57
2023-03-11T21:47:19.645Z,9.73
2023-03-11T21:50:07.502Z,10.63
2023-03-11T21:52:55.705Z,11.93
2023-03-11T21:55:43.551Z,10.70
2023-03-11T21:58:34.124Z,11.65
2023-03-11T22:01:22.392Z,11.38
2023-03-11T22:04:12.417Z,11.30
2023-03-11T22:07:02.455Z,10.68
2023-03-11T22:09:49.560Z,10.15
2023-03-11T22:12:37.894Z,8.88
2023-03-11T22:15:25.561Z,8.32
2023-03-11T22:18:12.865Z,8.02
2023-03-11T22:21:04.020Z,7.68
2023-03-11T22:23:51.418Z,7.68
2023-03-11T22:26:38.621Z,6.68
2023-03-11T22:29:26.066Z,8.02
2023-03-11T22:32:13.418Z,10.30
2023-03-11T22:35:02.822Z,8.77
2023-03-11T22:37:52.277Z,10.90
2023-03-11T22:40:39.516Z,10.13
2023-03-11T22:43:27.313Z,10.10
2023-03-11T22:46:15.175Z,11.50
2023-03-11T22:49:02.437Z,12.77
2023-03-11T22:51:49.734Z,12.18
2023-03-11T22:54:37.571Z,12.23
2023-03-11T22:57:24.761Z,12.20
2023-03-11T23:00:23.255Z,12.60
2023-03-11T23:03:11.854Z,11.95
2023-03-11T23:06:00.577Z,10.15
2023-03-11T23:08:48.585Z,8.82
2023-03-11T23:11:38.035Z,8.30
2023-03-11T23:14:37.845Z,7.80
2023-03-11T23:17:31.218Z,7.25
2023-03-11T23:20:18.518Z,7.13
2023-03-11T23:23:05.917Z,6.38
2023-03-11T23:25:58.632Z,7.65
2023-03-11T23:28:47.215Z,7.60
2023-03-11T23:31:36.634Z,8.35
2023-03-11T23:34:25.930Z,9.02
2023-03-11T23:37:13.147Z,7.75
2023-03-11T23:40:00.530Z,9.05
2023-03-11T23:42:47.754Z,9.02
2023-03-11T23:45:35.064Z,10.20
2023-03-11T23:48:22.229Z,10.43
2023-03-11T23:51:12.091Z,10.55
2023-03-11T23:53:59.502Z,10.13
2023-03-11T23:56:47.122Z,11.05
2023-03-11T23:59:34.337Z,9.57
